Saguaro National Park, AZ

11:28 PM MST on July 24, 2016 (GMT -0700)
UA WRRC WEATHER | | Change Station

Elev 2431 ft 32.23 °N, 110.94 °W | Updated 9 minutes ago

Overcast
Overcast
86.9 °F
Feels Like 86 °F
N
16.0
Wind Variable Wind from North
Gusts 29.0 mph

Today
High -- | Low -- °F
--% Chance of Precip.
Yesterday
High -- | Low -- °F
Precip. -- in
Pressure 30.04 in
Visibility 10.0 miles
Clouds Overcast 10000 ft
Heat Index 86 °F
Dew Point 58 °F
Humidity 37%
Rainfall in
Snow Depth Not available.
5:33 AM 7:26 PM
Waning Gibbous, 69% visible
SPECI KDMA 250611Z AUTO 14022G32KT 10SM -DZ OVC100 30/14 A3004 RMK AO2 LTG DSNT SE DZB11
Pressure 30.04 in
Visibility 10.0 miles
Clouds Overcast 10000 ft
Heat Index 86 °F
Dew Point 58 °F
Humidity 37%
Rainfall in
Snow Depth Not available.
5:33 AM 7:26 PM
Waning Gibbous, 69% visible
SPECI KDMA 250611Z AUTO 14022G32KT 10SM -DZ OVC100 30/14 A3004 RMK AO2 LTG DSNT SE DZB11

10-Day Weather Forecast

Almanac

Astronomy

Jul. 24, 2016 Rise Set
Actual Time
Civil Twilight
Nautical Twilight
Astronomical Twilight
Moon
Length of Visible Light
Length of Day
Tomorrow will be .
, % of the Moon is Illuminated

Today's Extremes

State Highs State Lows

Community

WunderPhotos

Upload Photos

1,927,275 photos uploaded!

WunderBlog® & News

Nearby

Air Quality

  Air Quality AQ Index Pollutant
Not available.

Snow Depth

Station Depth Elevation

Earthquake Activity

City Distance Mag. Time & Date
Minimum magnitude displayed is 2.5.

Coastal Water Temperatures

Place Temperature

Stations

Nearby Weather Stations

Station Location Temp. Windchill Dew Point Humidity Wind Precip. Elev Updated Type
                   

Watches & Warnings

There are currently no watches in effect.